createdAt,value
2018-05-26T00:01:01.382Z,49.97
2018-05-26T00:03:30.449Z,50.60
2018-05-26T00:05:59.487Z,50.33
2018-05-26T00:08:27.942Z,50.70
2018-05-26T00:10:56.056Z,48.97
2018-05-26T00:13:25.314Z,48.90
2018-05-26T00:15:53.445Z,49.63
2018-05-26T00:18:21.549Z,49.47
2018-05-26T00:20:49.667Z,49.23
2018-05-26T00:23:17.824Z,49.40
2018-05-26T00:25:45.895Z,48.40
2018-05-26T00:28:19.572Z,51.30
2018-05-26T00:30:47.682Z,48.20
2018-05-26T00:33:15.780Z,50.10
2018-05-26T00:35:44.716Z,47.43
2018-05-26T00:38:13.704Z,48.87
2018-05-26T00:40:41.825Z,49.57
2018-05-26T00:43:10.800Z,46.67
2018-05-26T00:45:39.149Z,48.20
2018-05-26T00:48:07.261Z,46.77
2018-05-26T00:50:35.379Z,49.07
2018-05-26T00:53:03.497Z,50.63
2018-05-26T00:55:33.237Z,46.33
2018-05-26T00:58:01.456Z,50.13
2018-05-26T01:00:29.614Z,48.67
2018-05-26T01:02:57.712Z,49.43
2018-05-26T01:05:25.804Z,48.03
2018-05-26T01:07:53.965Z,48.40
2018-05-26T01:10:22.123Z,47.30
2018-05-26T01:12:50.227Z,47.77
2018-05-26T01:15:18.361Z,46.83
2018-05-26T01:17:46.809Z,49.17
2018-05-26T01:20:14.937Z,45.40
2018-05-26T01:22:43.520Z,45.10
2018-05-26T01:25:11.639Z,45.57
2018-05-26T01:27:39.867Z,45.73
2018-05-26T01:30:08.024Z,45.03
2018-05-26T01:32:36.145Z,44.20
2018-05-26T01:35:05.259Z,45.13
2018-05-26T01:37:33.373Z,46.63
2018-05-26T01:40:01.504Z,44.90
2018-05-26T01:55:29.631Z,42.43
2018-05-26T01:57:57.743Z,43.13
2018-05-26T02:00:25.841Z,41.63
2018-05-26T02:02:54.005Z,41.63
2018-05-26T02:05:22.571Z,43.37
2018-05-26T02:07:56.186Z,43.13
2018-05-26T02:10:24.282Z,41.80
2018-05-26T02:12:53.027Z,42.23
2018-05-26T02:15:22.093Z,42.37
2018-05-26T02:17:50.276Z,40.83
2018-05-26T02:20:19.177Z,41.23
2018-05-26T02:22:47.295Z,42.33
2018-05-26T02:25:15.405Z,43.33
2018-05-26T02:27:43.529Z,42.10
2018-05-26T02:30:12.235Z,41.10
2018-05-26T02:32:41.374Z,43.60
2018-05-26T02:35:09.494Z,42.10
2018-05-26T02:37:37.591Z,42.77
2018-05-26T02:40:06.442Z,40.83
2018-05-26T02:42:34.581Z,40.17
2018-05-26T02:45:02.690Z,41.97
2018-05-26T02:47:30.800Z,39.47
2018-05-26T02:49:58.960Z,41.00
2018-05-26T02:52:32.639Z,40.80
2018-05-26T02:55:00.766Z,41.03
2018-05-26T02:57:28.874Z,40.37
2018-05-26T02:59:56.987Z,39.50
2018-05-26T03:02:25.084Z,40.27
2018-05-26T03:04:58.787Z,39.13
2018-05-26T03:07:32.438Z,38.10
2018-05-26T03:10:06.856Z,39.10
2018-05-26T03:12:40.623Z,37.43
2018-05-26T03:15:08.184Z,38.67
2018-05-26T03:17:40.687Z,38.97
2018-05-26T03:20:08.811Z,39.30
2018-05-26T03:22:36.979Z,39.17
2018-05-26T03:38:01.124Z,37.43
2018-05-26T03:40:29.253Z,38.50
2018-05-26T03:42:57.363Z,41.03
2018-05-26T03:45:25.490Z,38.37
2018-05-26T03:47:53.645Z,38.17
2018-05-26T03:50:21.747Z,38.70
2018-05-26T03:52:49.881Z,37.90
2018-05-26T03:55:38.711Z,36.93
2018-05-26T03:58:18.665Z,36.33
2018-05-26T04:13:46.802Z,36.17
2018-05-26T04:16:15.785Z,35.87
2018-05-26T04:18:44.091Z,35.77
2018-05-26T04:21:12.249Z,36.20
2018-05-26T04:23:40.388Z,35.57
2018-05-26T04:26:08.491Z,34.30
2018-05-26T04:38:21.669Z,35.67
2018-05-26T04:40:49.806Z,36.63
2018-05-26T04:43:17.917Z,35.77
2018-05-26T04:58:46.395Z,34.37
2018-05-26T05:01:14.527Z,35.83
2018-05-26T05:03:42.701Z,33.57
2018-05-26T05:06:15.776Z,35.00
2018-05-26T05:08:43.873Z,34.67
2018-05-26T05:11:12.446Z,35.27
2018-05-26T05:13:40.606Z,35.17
2018-05-26T05:16:08.713Z,33.43
2018-05-26T05:18:36.835Z,35.73
2018-05-26T05:21:05.942Z,34.53
2018-05-26T05:23:34.960Z,35.03
2018-05-26T05:26:03.640Z,35.40
2018-05-26T05:28:32.249Z,35.23
2018-05-26T05:31:00.389Z,34.07
2018-05-26T05:33:28.499Z,34.40
2018-05-26T05:35:56.593Z,34.07
2018-05-26T05:38:25.025Z,34.70
2018-05-26T05:40:53.178Z,34.10
2018-05-26T05:43:21.590Z,34.93
2018-05-26T05:45:54.701Z,35.03
2018-05-26T05:48:22.801Z,35.77
2018-05-26T05:50:50.924Z,36.00
2018-05-26T05:53:19.901Z,35.13
2018-05-26T05:55:48.056Z,35.23
2018-05-26T05:58:16.169Z,33.97
2018-05-26T06:00:44.315Z,36.17
2018-05-26T06:03:12.478Z,35.23
2018-05-26T06:05:40.584Z,35.67
2018-05-26T06:08:08.698Z,34.00
2018-05-26T06:10:36.824Z,35.23
2018-05-26T06:13:05.859Z,35.83
2018-05-26T06:15:33.988Z,34.20
2018-05-26T06:18:02.470Z,33.37
2018-05-26T06:20:30.569Z,34.30
2018-05-26T06:22:58.721Z,34.50
2018-05-26T06:25:26.859Z,34.30
2018-05-26T06:27:55.480Z,35.47
2018-05-26T06:30:24.390Z,33.50
2018-05-26T06:32:53.052Z,35.37
2018-05-26T06:35:21.154Z,34.30
2018-05-26T06:37:49.255Z,34.00
2018-05-26T06:40:17.381Z,34.83
2018-05-26T06:42:45.491Z,33.80
2018-05-26T06:45:13.700Z,32.87
2018-05-26T06:47:41.838Z,32.70
2018-05-26T06:50:10.440Z,32.07
2018-05-26T06:52:39.425Z,32.00
2018-05-26T06:55:07.549Z,32.27
2018-05-26T06:57:35.672Z,32.70
2018-05-26T07:00:03.838Z,30.07
2018-05-26T07:02:31.965Z,30.47
2018-05-26T07:05:00.116Z,31.33
2018-05-26T07:07:28.221Z,33.13
2018-05-26T07:09:56.370Z,30.17
2018-05-26T07:12:24.479Z,30.80
2018-05-26T07:14:52.584Z,30.57
2018-05-26T07:17:22.274Z,30.13
2018-05-26T07:19:50.886Z,31.10
2018-05-26T07:22:19.013Z,30.13
2018-05-26T07:24:47.217Z,30.67
2018-05-26T07:27:15.399Z,30.00
2018-05-26T07:29:43.495Z,29.00
2018-05-26T07:32:11.880Z,31.27
2018-05-26T07:34:39.980Z,30.47
2018-05-26T07:37:08.400Z,31.70
2018-05-26T07:39:36.564Z,31.63
2018-05-26T07:42:04.752Z,31.33
2018-05-26T07:44:33.372Z,29.47
2018-05-26T07:47:01.512Z,28.97
2018-05-26T07:49:29.624Z,27.70
2018-05-26T07:51:57.777Z,26.40
2018-05-26T07:54:26.766Z,28.57
2018-05-26T07:56:54.925Z,25.63
2018-05-26T07:59:23.030Z,28.30
2018-05-26T08:01:51.180Z,27.40
2018-05-26T08:04:19.341Z,28.20
2018-05-26T08:06:47.444Z,26.50
2018-05-26T08:09:16.468Z,26.17
2018-05-26T08:11:44.583Z,29.13
2018-05-26T08:14:12.690Z,28.50
2018-05-26T08:16:40.828Z,27.67
2018-05-26T08:19:08.973Z,28.50
2018-05-26T08:21:37.075Z,28.20
2018-05-26T08:24:05.178Z,29.63
2018-05-26T08:26:33.341Z,25.90
2018-05-26T08:29:01.442Z,28.93
2018-05-26T08:31:30.491Z,28.40
2018-05-26T08:33:58.617Z,25.60
2018-05-26T08:36:26.759Z,25.90
2018-05-26T08:38:54.884Z,24.27
2018-05-26T08:41:23.014Z,26.17
2018-05-26T08:43:51.936Z,25.33
2018-05-26T08:46:20.043Z,25.50
2018-05-26T08:48:48.222Z,24.73
2018-05-26T08:51:16.321Z,24.73
2018-05-26T08:53:44.416Z,25.00
2018-05-26T08:56:12.535Z,25.43
2018-05-26T08:58:40.661Z,25.43
2018-05-26T09:01:09.568Z,25.80
2018-05-26T09:03:37.711Z,25.33
2018-05-26T09:06:05.817Z,26.10
2018-05-26T09:08:33.952Z,25.20
2018-05-26T09:11:02.065Z,26.70
2018-05-26T09:13:31.015Z,25.43
2018-05-26T09:15:59.163Z,23.93
2018-05-26T09:18:27.249Z,25.43
2018-05-26T09:20:55.359Z,23.83
2018-05-26T09:23:24.229Z,23.00
2018-05-26T09:25:52.351Z,22.73
2018-05-26T09:28:20.475Z,23.63
2018-05-26T09:30:48.624Z,22.80
2018-05-26T09:33:16.735Z,21.30
2018-05-26T09:35:45.403Z,22.13
2018-05-26T09:38:13.556Z,19.20
2018-05-26T09:40:41.708Z,18.90
2018-05-26T09:43:10.097Z,17.93
2018-05-26T09:45:43.829Z,18.53
2018-05-26T09:48:11.928Z,19.00
2018-05-26T09:50:40.039Z,18.93
2018-05-26T09:53:08.156Z,17.40
2018-05-26T09:55:36.259Z,18.97
2018-05-26T09:58:04.389Z,17.73
2018-05-26T10:00:32.501Z,18.80
2018-05-26T10:03:00.630Z,18.67
2018-05-26T10:05:28.759Z,18.60
2018-05-26T10:07:56.861Z,17.27
2018-05-26T10:10:24.981Z,15.87
2018-05-26T10:12:53.089Z,15.33
2018-05-26T10:15:21.194Z,17.77
2018-05-26T10:17:49.334Z,17.00
2018-05-26T10:20:17.708Z,17.90
2018-05-26T10:22:45.821Z,18.63
2018-05-26T10:25:14.029Z,16.20
2018-05-26T10:27:42.129Z,17.40
2018-05-26T10:30:10.257Z,16.53
2018-05-26T10:32:38.406Z,17.50
2018-05-26T10:35:06.505Z,18.50
2018-05-26T10:37:34.613Z,17.53
2018-05-26T10:40:02.792Z,18.17
2018-05-26T10:42:30.895Z,16.57
2018-05-26T10:44:58.999Z,15.87
2018-05-26T10:47:28.009Z,14.50
2018-05-26T10:49:56.124Z,14.20
2018-05-26T10:52:24.229Z,12.20
2018-05-26T10:54:52.329Z,15.30
2018-05-26T10:57:20.449Z,15.47
2018-05-26T10:59:48.613Z,12.73
2018-05-26T11:02:16.729Z,14.97
2018-05-26T11:04:50.447Z,12.40
2018-05-26T11:07:18.549Z,14.27
2018-05-26T11:09:46.654Z,12.30
2018-05-26T11:12:14.801Z,12.37
2018-05-26T11:14:42.947Z,11.30
2018-05-26T11:17:16.618Z,11.87
2018-05-26T11:19:50.162Z,10.13
2018-05-26T11:22:18.798Z,11.23
2018-05-26T11:24:46.927Z,9.97
2018-05-26T11:27:15.070Z,11.00
2018-05-26T11:29:43.189Z,10.90
2018-05-26T11:32:11.305Z,9.40
2018-05-26T11:34:39.428Z,10.10
2018-05-26T11:37:08.209Z,9.53
2018-05-26T11:39:36.320Z,9.87
2018-05-26T11:42:04.447Z,11.83
2018-05-26T11:44:33.350Z,12.40
2018-05-26T11:47:01.447Z,12.73
2018-05-26T11:49:29.561Z,8.60
2018-05-26T11:51:58.249Z,8.93
2018-05-26T11:54:26.361Z,9.83
2018-05-26T11:56:54.469Z,7.60
2018-05-26T11:59:22.641Z,7.97
2018-05-26T12:01:51.174Z,7.50
2018-05-26T12:04:19.264Z,6.77
2018-05-26T12:06:47.349Z,6.27
2018-05-26T12:09:15.469Z,6.67
2018-05-26T12:11:43.611Z,10.30
2018-05-26T12:14:11.701Z,8.17
2018-05-26T12:16:40.024Z,7.80
2018-05-26T12:19:08.172Z,8.20
2018-05-26T12:21:36.288Z,7.33
2018-05-26T12:24:04.787Z,6.33
2018-05-26T12:26:33.249Z,7.17
2018-05-26T12:29:06.989Z,7.57
2018-05-26T12:31:40.513Z,8.90
2018-05-26T12:34:08.649Z,8.87
2018-05-26T12:36:36.767Z,9.37
2018-05-26T12:39:05.653Z,9.43
2018-05-26T12:41:34.404Z,8.10
2018-05-26T12:44:02.593Z,10.50
2018-05-26T12:46:30.689Z,9.70
2018-05-26T12:48:58.917Z,10.93
2018-05-26T12:51:27.052Z,9.17
2018-05-26T12:53:55.153Z,7.83
2018-05-26T12:56:28.853Z,7.83
2018-05-26T12:58:56.991Z,10.20
2018-05-26T13:01:25.094Z,8.67
2018-05-26T13:03:54.890Z,8.83
2018-05-26T13:06:23.041Z,10.27
2018-05-26T13:08:51.231Z,8.97
2018-05-26T13:11:19.308Z,9.30
2018-05-26T13:13:47.441Z,9.07
2018-05-26T13:16:15.668Z,9.20
2018-05-26T13:18:49.445Z,9.03
2018-05-26T13:21:17.585Z,9.90
2018-05-26T13:23:45.742Z,11.27
2018-05-26T13:26:14.728Z,12.27
2018-05-26T13:28:42.847Z,12.43
2018-05-26T13:31:10.953Z,10.23
2018-05-26T13:46:39.385Z,11.13
2018-05-26T13:49:07.508Z,9.93
2018-05-26T13:51:36.190Z,11.10
2018-05-26T13:54:04.316Z,11.63
2018-05-26T13:56:32.482Z,12.13
2018-05-26T13:59:00.589Z,10.80
2018-05-26T14:01:28.713Z,11.30
2018-05-26T14:03:56.829Z,11.13
2018-05-26T14:06:24.977Z,11.23
2018-05-26T14:08:53.105Z,10.83
2018-05-26T14:11:21.239Z,10.57
2018-05-26T14:13:50.079Z,13.87
2018-05-26T14:16:18.220Z,11.77
2018-05-26T14:18:47.863Z,10.27
2018-05-26T14:21:16.197Z,10.10
2018-05-26T14:23:44.329Z,10.07
2018-05-26T14:26:13.045Z,9.63
2018-05-26T14:28:41.157Z,10.50
2018-05-26T14:31:09.783Z,9.27
2018-05-26T14:33:38.157Z,10.07
2018-05-26T14:36:06.318Z,11.50
2018-05-26T14:38:34.441Z,11.33
2018-05-26T14:54:02.564Z,9.50
2018-05-26T14:56:31.433Z,9.70
2018-05-26T14:58:59.533Z,10.23
2018-05-26T15:01:27.643Z,9.20
2018-05-26T15:03:55.797Z,9.57
2018-05-26T15:06:23.905Z,9.17
2018-05-26T15:08:52.641Z,10.50
2018-05-26T15:11:21.077Z,10.43
2018-05-26T15:13:49.189Z,11.27
2018-05-26T15:16:17.295Z,9.80
2018-05-26T15:18:46.001Z,9.93
2018-05-26T15:21:15.109Z,9.20
2018-05-26T15:23:43.273Z,10.50
2018-05-26T15:26:11.393Z,9.70
2018-05-26T15:28:39.494Z,9.70
2018-05-26T15:31:07.601Z,7.60
2018-05-26T15:33:37.003Z,8.13
2018-05-26T15:36:05.087Z,8.40
2018-05-26T15:38:33.265Z,8.67
2018-05-26T15:41:01.373Z,8.43
2018-05-26T15:43:29.469Z,8.53
2018-05-26T15:45:57.639Z,9.20
2018-05-26T15:48:26.671Z,8.47
2018-05-26T15:50:54.832Z,7.83
2018-05-26T15:53:22.960Z,9.67
2018-05-26T15:55:51.136Z,9.30
2018-05-26T15:58:19.252Z,9.13
2018-05-26T16:00:47.339Z,8.13
2018-05-26T16:03:15.442Z,9.30
2018-05-26T16:05:48.523Z,8.53
2018-05-26T16:08:16.690Z,10.07
2018-05-26T16:10:44.837Z,8.40
2018-05-26T16:13:12.917Z,9.27
2018-05-26T16:15:41.011Z,8.07
2018-05-26T16:18:09.121Z,8.43
2018-05-26T16:20:38.021Z,8.73
2018-05-26T16:23:06.755Z,9.07
2018-05-26T16:25:34.841Z,8.40
2018-05-26T16:28:02.936Z,9.13
2018-05-26T16:30:31.039Z,9.10
2018-05-26T16:32:59.941Z,8.73
2018-05-26T16:35:28.081Z,8.20
2018-05-26T16:50:56.221Z,10.57
2018-05-26T16:53:24.328Z,14.27
2018-05-26T16:55:52.434Z,9.33
2018-05-26T16:58:21.469Z,10.20
2018-05-26T17:00:49.603Z,14.47
2018-05-26T17:03:17.696Z,9.57
2018-05-26T17:05:46.069Z,10.23
2018-05-26T17:08:14.179Z,9.40
2018-05-26T17:10:42.315Z,8.50
2018-05-26T17:13:10.508Z,8.70
2018-05-26T17:15:38.689Z,7.87
2018-05-26T17:18:06.769Z,8.30
2018-05-26T17:20:34.938Z,7.80
2018-05-26T17:23:08.505Z,7.97
2018-05-26T17:25:36.610Z,7.37
2018-05-26T17:28:04.713Z,7.80
2018-05-26T17:30:33.727Z,8.50
2018-05-26T17:33:02.060Z,8.17
2018-05-26T17:35:30.140Z,10.13
2018-05-26T17:37:58.906Z,7.57
2018-05-26T17:40:26.988Z,10.97
2018-05-26T17:42:55.167Z,9.13
2018-05-26T17:45:23.289Z,12.63
2018-05-26T17:47:51.410Z,9.83
2018-05-26T17:50:19.501Z,8.40
2018-05-26T17:52:47.637Z,7.30
2018-05-26T17:55:15.722Z,9.47
2018-05-26T17:57:43.822Z,10.23
2018-05-26T18:00:12.293Z,7.90
2018-05-26T18:02:40.444Z,6.97
2018-05-26T18:05:08.534Z,7.00
2018-05-26T18:07:36.662Z,7.10
2018-05-26T18:10:04.754Z,7.10
2018-05-26T18:12:32.853Z,7.83
2018-05-26T18:15:01.020Z,7.20
2018-05-26T18:17:29.324Z,6.70
2018-05-26T18:19:57.426Z,7.17
2018-05-26T18:22:25.539Z,7.13
2018-05-26T18:24:53.627Z,7.03
2018-05-26T18:27:21.735Z,7.40
2018-05-26T18:29:49.917Z,8.20
2018-05-26T18:32:18.884Z,6.90
2018-05-26T18:34:47.087Z,6.83
2018-05-26T18:37:15.424Z,7.60
2018-05-26T18:39:43.546Z,6.77
2018-05-26T18:42:11.649Z,9.27
2018-05-26T18:44:40.479Z,10.77
2018-05-26T18:47:09.048Z,8.47
2018-05-26T18:49:37.145Z,7.63
2018-05-26T18:52:06.076Z,8.80
2018-05-26T18:54:35.169Z,12.07
2018-05-26T18:57:03.351Z,8.73
2018-05-26T18:59:31.514Z,8.93
2018-05-26T19:02:00.604Z,10.73
2018-05-26T19:04:28.706Z,9.50
2018-05-26T19:06:56.827Z,9.60
2018-05-26T19:09:24.954Z,10.13
2018-05-26T19:11:53.054Z,8.40
2018-05-26T19:14:21.164Z,8.70
2018-05-26T19:16:49.264Z,8.60
2018-05-26T19:19:17.355Z,8.10
2018-05-26T19:21:45.457Z,8.63
2018-05-26T19:24:13.552Z,14.10
2018-05-26T19:26:41.719Z,8.63
2018-05-26T19:29:09.795Z,8.27
2018-05-26T19:31:38.674Z,8.47
2018-05-26T19:34:07.446Z,8.60
2018-05-26T19:36:35.546Z,9.17
2018-05-26T19:39:04.370Z,9.87
2018-05-26T19:41:32.470Z,9.07
2018-05-26T19:44:01.338Z,8.20
2018-05-26T19:46:29.406Z,7.30
2018-05-26T19:48:57.512Z,7.63
2018-05-26T19:51:25.631Z,8.90
2018-05-26T19:53:58.690Z,7.70
2018-05-26T19:56:26.826Z,8.47
2018-05-26T19:58:55.410Z,7.97
2018-05-26T20:01:23.542Z,9.87
2018-05-26T20:03:51.664Z,8.80
2018-05-26T20:06:19.756Z,8.00
2018-05-26T20:08:49.185Z,7.60
2018-05-26T20:11:17.504Z,8.33
2018-05-26T20:13:45.625Z,17.70
2018-05-26T20:16:13.737Z,12.83
2018-05-26T20:18:41.862Z,11.00
2018-05-26T20:21:10.018Z,8.63
2018-05-26T20:23:38.167Z,9.00
2018-05-26T20:26:06.398Z,7.97
2018-05-26T20:28:34.734Z,8.70
2018-05-26T20:31:02.848Z,9.37
2018-05-26T20:33:32.674Z,8.07
2018-05-26T20:36:03.490Z,7.63
2018-05-26T20:38:34.748Z,8.17
2018-05-26T20:49:59.987Z,9.00
2018-05-26T20:52:28.106Z,8.93
2018-05-26T20:54:56.452Z,9.37
2018-05-26T20:57:25.302Z,8.10
2018-05-26T20:59:53.483Z,8.60
2018-05-26T21:02:21.533Z,8.47
2018-05-26T21:04:49.676Z,7.40
2018-05-26T21:07:17.806Z,7.70
2018-05-26T21:09:46.177Z,7.33
2018-05-26T21:12:14.288Z,7.50
2018-05-26T21:14:42.737Z,8.17
2018-05-26T21:17:10.954Z,7.83
2018-05-26T21:19:39.058Z,7.90
2018-05-26T21:22:07.195Z,8.27
2018-05-26T21:24:35.300Z,8.70
2018-05-26T21:27:03.449Z,7.83
2018-05-26T21:29:31.588Z,9.17
2018-05-26T21:31:59.694Z,8.50
2018-05-26T21:34:27.844Z,8.70
2018-05-26T21:36:55.941Z,7.70
2018-05-26T21:39:24.044Z,7.53
2018-05-26T21:41:52.170Z,8.33
2018-05-26T21:44:20.273Z,8.83
2018-05-26T21:46:48.362Z,7.73
2018-05-26T21:49:16.560Z,8.07
2018-05-26T21:51:44.657Z,8.60
2018-05-26T21:54:12.776Z,8.20
2018-05-26T21:56:40.905Z,8.17
2018-05-26T21:59:08.997Z,8.40
2018-05-26T22:01:37.101Z,8.47
2018-05-26T22:04:05.200Z,7.77
2018-05-26T22:06:33.291Z,8.20
2018-05-26T22:09:01.434Z,8.13
2018-05-26T22:11:29.536Z,8.83
2018-05-26T22:13:57.648Z,8.67
2018-05-26T22:16:25.753Z,8.50
2018-05-26T22:18:53.896Z,8.50
2018-05-26T22:21:21.989Z,8.27
2018-05-26T22:23:50.949Z,8.50
2018-05-26T22:26:19.050Z,8.30
2018-05-26T22:28:47.174Z,8.13
2018-05-26T22:31:15.275Z,8.90
2018-05-26T22:33:43.374Z,8.90
2018-05-26T22:36:11.482Z,9.70
2018-05-26T22:38:39.576Z,9.00
2018-05-26T22:41:07.698Z,9.50
2018-05-26T22:43:35.814Z,9.03
2018-05-26T22:46:03.944Z,9.33
2018-05-26T22:48:32.054Z,8.97
2018-05-26T22:51:00.465Z,9.03
2018-05-26T22:53:28.609Z,9.30
2018-05-26T22:55:56.717Z,8.70
2018-05-26T22:58:24.828Z,9.33
2018-05-26T23:00:52.934Z,9.03
2018-05-26T23:03:21.056Z,8.77
2018-05-26T23:05:49.296Z,9.23
2018-05-26T23:08:17.345Z,8.63
2018-05-26T23:10:45.470Z,8.50
2018-05-26T23:13:13.566Z,8.33
2018-05-26T23:15:41.660Z,7.77
2018-05-26T23:18:09.774Z,8.17
2018-05-26T23:20:37.876Z,8.03
2018-05-26T23:23:05.981Z,9.43
2018-05-26T23:25:34.097Z,8.13
2018-05-26T23:28:02.194Z,7.90
2018-05-26T23:30:30.290Z,8.53
2018-05-26T23:32:58.562Z,8.57
2018-05-26T23:35:26.662Z,8.00
2018-05-26T23:37:54.732Z,8.20
2018-05-26T23:40:22.856Z,8.33
2018-05-26T23:42:50.948Z,8.73
2018-05-26T23:45:19.068Z,8.17
2018-05-26T23:47:47.218Z,7.60
2018-05-26T23:50:15.353Z,7.70
2018-05-26T23:52:43.456Z,7.83
2018-05-26T23:55:11.572Z,7.57
2018-05-26T23:57:39.668Z,8.57
